Time;durP1;ratioP1;P1;durP2;ratioP2;P2;SDS_P1;SDS_P2;PMS_P1;PMS_P2;Temp;Humidity;BMP_temperature;BMP_pressure;BME280_temperature;BME280_humidity;BME280_pressure;Samples;Min_cycle;Max_cycle;Signal;HPM_P1;HPM_P2
2021/05/02 00:01:32;;;;;;;28.23;19.92;;;;;;;10.34;67.68;99993.00;5023506;28;20033;-74
2021/05/02 00:03:57;;;;;;;24.48;18.75;;;;;;;10.34;68.29;99993.00;5020641;28;20084;-75
2021/05/02 00:06:23;;;;;;;26.92;20.02;;;;;;;10.36;67.71;99999.13;5024660;28;20493;-76
2021/05/02 00:08:48;;;;;;;26.75;21.40;;;;;;;10.32;68.99;99997.41;5024248;28;20045;-75
2021/05/02 00:11:13;;;;;;;29.48;22.98;;;;;;;10.07;69.70;100002.13;5022216;28;20030;-75
2021/05/02 00:13:40;;;;;;;34.17;22.35;;;;;;;9.96;70.25;99990.84;5023716;28;20049;-75
2021/05/02 00:16:06;;;;;;;28.95;23.42;;;;;;;9.86;70.92;99985.66;5024709;28;20033;-76
2021/05/02 00:18:33;;;;;;;29.00;21.67;;;;;;;9.88;70.33;99985.66;5022414;28;20022;-75
2021/05/02 00:20:59;;;;;;;28.90;22.83;;;;;;;9.88;70.70;99985.66;5022965;28;20041;-76
2021/05/02 00:23:24;;;;;;;34.13;24.80;;;;;;;9.93;71.23;99977.66;5024252;28;20042;-76
2021/05/02 00:25:51;;;;;;;29.55;22.13;;;;;;;9.97;70.73;99982.03;5023071;28;20042;-76
2021/05/02 00:28:17;;;;;;;28.17;21.90;;;;;;;10.02;70.70;99986.34;5022018;28;20038;-76
2021/05/02 00:30:43;;;;;;;30.30;22.88;;;;;;;10.09;70.59;99977.47;5024032;28;20043;-76
2021/05/02 00:33:09;;;;;;;30.63;22.45;;;;;;;10.19;70.59;99974.69;5022240;28;20033;-75
2021/05/02 00:35:35;;;;;;;26.90;21.67;;;;;;;10.21;70.69;99965.88;5021735;28;20137;-75
2021/05/02 00:38:01;;;;;;;29.33;22.42;;;;;;;10.19;71.43;99974.69;5023332;28;20469;-75
2021/05/02 00:40:40;;;;;;;31.63;24.13;;;;;;;10.08;72.05;99983.63;5024102;28;20053;-76
2021/05/02 00:43:21;;;;;;;31.10;24.90;;;;;;;9.83;72.13;99980.44;5023544;28;20061;-75
2021/05/02 00:45:58;;;;;;;32.78;25.55;;;;;;;9.80;72.49;99976.97;5023752;28;20122;-76
2021/05/02 00:48:31;;;;;;;33.78;24.92;;;;;;;9.75;73.20;99970.88;5022799;28;20570;-75
2021/05/02 00:51:02;;;;;;;32.80;24.95;;;;;;;9.71;73.20;99971.78;5021626;28;20084;-75
2021/05/02 00:54:01;;;;;;;33.55;25.33;;;;;;;9.43;74.06;99978.25;5021596;28;20492;-76
2021/05/02 00:56:35;;;;;;;30.88;23.77;;;;;;;9.30;74.88;99975.72;5020247;28;20485;-75
2021/05/02 00:59:21;;;;;;;32.85;24.52;;;;;;;9.23;74.43;99974.94;5039236;28;20405;-75
2021/05/02 01:01:52;;;;;;;30.95;23.63;;;;;;;9.25;74.90;99967.00;5021174;28;20037;-76
2021/05/02 01:04:23;;;;;;;32.55;23.92;;;;;;;9.22;75.61;99965.28;5021621;28;20421;-74
2021/05/02 01:06:51;;;;;;;30.27;23.35;;;;;;;9.20;75.06;99962.66;5022083;28;20041;-75
2021/05/02 01:09:17;;;;;;;37.63;24.52;;;;;;;9.13;75.42;99958.34;5021352;28;20112;-75
2021/05/02 01:11:46;;;;;;;32.67;23.23;;;;;;;9.14;75.36;99969.75;5019878;28;20454;-76
2021/05/02 01:14:12;;;;;;;35.15;24.13;;;;;;;9.15;75.85;99967.09;5021308;28;20514;-75
2021/05/02 01:16:40;;;;;;;33.33;23.95;;;;;;;9.17;75.87;99981.13;5023537;28;20122;-75
2021/05/02 01:19:10;;;;;;;34.65;25.15;;;;;;;9.17;75.85;99981.13;5022538;28;20512;-76
2021/05/02 01:21:37;;;;;;;32.35;23.85;;;;;;;9.21;75.24;99969.66;5020951;28;20104;-76
2021/05/02 01:24:06;;;;;;;32.83;23.55;;;;;;;9.18;75.64;99972.34;5021901;28;20037;-75
2021/05/02 01:26:35;;;;;;;33.45;22.25;;;;;;;9.12;75.64;99961.88;5023277;28;20045;-76
2021/05/02 01:29:00;;;;;;;33.42;23.98;;;;;;;9.00;76.02;99954.06;5022627;28;20038;-75
2021/05/02 01:31:27;;;;;;;33.90;24.60;;;;;;;8.93;76.18;99960.28;5019446;28;20129;-75
2021/05/02 01:33:53;;;;;;;33.47;23.13;;;;;;;8.89;76.86;99953.31;5021104;28;20040;-75
2021/05/02 01:36:19;;;;;;;36.03;26.27;;;;;;;8.83;77.16;99958.59;5023159;28;20057;-75
2021/05/02 01:38:45;;;;;;;34.20;24.13;;;;;;;8.83;77.04;99953.34;5021059;28;20075;-75
2021/05/02 01:41:10;;;;;;;31.40;24.45;;;;;;;8.84;77.02;99955.09;5026610;28;20034;-75
2021/05/02 01:43:36;;;;;;;35.92;25.40;;;;;;;8.80;77.37;99950.75;5023581;28;20048;-76
2021/05/02 01:46:03;;;;;;;31.92;23.75;;;;;;;8.83;77.31;99937.56;5021326;28;20030;-76
2021/05/02 01:48:31;;;;;;;36.20;25.40;;;;;;;8.85;77.44;99946.31;5020151;28;20462;-75
2021/05/02 01:51:03;;;;;;;29.00;22.45;;;;;;;8.84;76.96;99944.56;5022813;28;20098;-75
2021/05/02 01:53:29;;;;;;;32.10;24.80;;;;;;;8.82;77.46;99954.25;5017935;28;20088;-76
2021/05/02 01:55:56;;;;;;;34.83;26.65;;;;;;;8.75;78.16;99942.88;5037565;28;20033;-75
2021/05/02 01:58:22;;;;;;;32.25;23.83;;;;;;;8.67;78.84;99947.31;5037748;28;20504;-75
2021/05/02 02:00:52;;;;;;;31.65;23.98;;;;;;;8.65;78.42;99941.22;5020417;28;20033;-76
2021/05/02 02:03:19;;;;;;;30.35;22.13;;;;;;;8.71;78.47;99934.16;5021837;28;20076;-76
2021/05/02 02:05:45;;;;;;;29.95;22.52;;;;;;;8.75;77.72;99925.34;5027703;28;20033;-76
2021/05/02 02:08:10;;;;;;;34.80;25.25;;;;;;;8.74;78.15;99922.72;5024022;28;20585;-75
2021/05/02 02:10:37;;;;;;;30.13;23.25;;;;;;;8.71;77.89;99928.88;5020071;28;20045;-76
2021/05/02 02:13:03;;;;;;;30.60;22.92;;;;;;;8.80;77.72;99935.81;5021822;28;20049;-75
2021/05/02 02:15:30;;;;;;;33.03;23.45;;;;;;;8.64;78.59;99932.44;5022239;28;20033;-76
2021/05/02 02:17:56;;;;;;;29.60;22.00;;;;;;;8.57;79.28;99941.28;5035413;28;20057;-75
2021/05/02 02:20:23;;;;;;;31.08;23.30;;;;;;;8.56;79.19;99935.13;5023608;28;20047;-75
2021/05/02 02:23:00;;;;;;;31.63;23.25;;;;;;;8.49;79.17;99946.59;5018455;28;20034;-76
2021/05/02 02:25:28;;;;;;;35.45;24.42;;;;;;;8.40;80.19;99938.75;5020223;28;20498;-75
2021/05/02 02:27:56;;;;;;;33.53;24.65;;;;;;;8.37;80.18;99937.88;5020395;28;20030;-76
2021/05/02 02:30:22;;;;;;;32.95;24.20;;;;;;;8.40;80.18;99927.38;5019178;28;20038;-76
2021/05/02 02:32:47;;;;;;;35.03;25.27;;;;;;;8.35;80.76;99933.50;5022015;28;20670;-76
2021/05/02 02:35:18;;;;;;;33.33;25.02;;;;;;;8.34;80.34;99941.41;5021329;28;20030;-75
2021/05/02 02:37:45;;;;;;;32.05;23.35;;;;;;;8.29;80.66;99945.81;5019906;28;20034;-75
2021/05/02 02:40:14;;;;;;;36.92;25.58;;;;;;;8.31;80.89;99946.69;5020921;28;20496;-76
2021/05/02 02:42:44;;;;;;;33.38;24.75;;;;;;;8.33;80.63;99924.75;5021206;28;20397;-75
2021/05/02 02:45:10;;;;;;;39.53;27.17;;;;;;;8.36;80.81;99931.75;5021223;28;20046;-75
2021/05/02 02:47:39;;;;;;;39.95;26.77;;;;;;;8.31;81.29;99923.03;5022267;28;20103;-76
2021/05/02 02:50:10;;;;;;;35.13;24.20;;;;;;;8.34;81.05;99937.00;5021041;28;20045;-76
2021/05/02 02:53:01;;;;;;;35.10;25.45;;;;;;;8.31;81.07;99942.31;5018550;28;20088;-75
2021/05/02 02:55:27;;;;;;;34.90;25.60;;;;;;;8.30;81.17;99927.38;5020466;28;20046;-75
2021/05/02 02:57:52;;;;;;;36.83;26.15;;;;;;;8.30;81.30;99926.53;5023497;28;20042;-75
2021/05/02 03:00:22;;;;;;;34.83;24.52;;;;;;;8.28;81.09;99926.56;5021373;28;20038;-75
2021/05/02 03:03:12;;;;;;;36.80;25.83;;;;;;;8.26;81.66;99930.06;5024420;28;20385;-75
2021/05/02 03:05:39;;;;;;;38.60;28.40;;;;;;;8.25;81.72;99942.34;5024113;28;20045;-76
2021/05/02 03:08:06;;;;;;;36.45;25.70;;;;;;;8.24;81.31;99939.72;5019856;28;20041;-75
2021/05/02 03:10:33;;;;;;;35.58;26.60;;;;;;;8.21;82.22;99942.38;5025893;28;20540;-75
2021/05/02 03:12:59;;;;;;;39.20;26.10;;;;;;;8.24;81.78;99943.22;5023679;28;20073;-76
2021/05/02 03:15:25;;;;;;;42.05;28.10;;;;;;;8.17;82.20;99945.88;5022992;28;20117;-75
2021/05/02 03:18:03;;;;;;;42.17;28.98;;;;;;;8.19;82.19;99949.38;5024454;28;20029;-75
2021/05/02 03:20:33;;;;;;;38.38;27.02;;;;;;;8.24;81.78;99944.97;5025637;28;20049;-76
2021/05/02 03:23:06;;;;;;;39.22;27.60;;;;;;;8.20;81.78;99954.66;5024241;28;20454;-76
2021/05/02 03:25:34;;;;;;;35.95;26.23;;;;;;;8.17;82.17;99946.75;5023347;28;20178;-76
2021/05/02 03:28:06;;;;;;;39.13;27.30;;;;;;;8.09;82.06;99949.41;5023980;28;20029;-75
2021/05/02 03:30:32;;;;;;;40.78;29.15;;;;;;;8.13;82.44;99945.03;5023360;28;20033;-75
2021/05/02 03:33:02;;;;;;;44.97;31.83;;;;;;;8.14;82.09;99952.03;5023379;28;20026;-76
2021/05/02 03:35:33;;;;;;;46.20;30.17;;;;;;;8.19;82.37;99949.38;5023229;28;20033;-75
2021/05/02 03:38:15;;;;;;;38.83;28.45;;;;;;;8.19;82.15;99952.00;5023290;28;20552;-75
2021/05/02 03:40:40;;;;;;;42.17;28.67;;;;;;;8.11;82.85;99957.31;5025219;28;20052;-75
2021/05/02 03:43:06;;;;;;;43.60;31.27;;;;;;;8.11;82.28;99958.19;5024350;28;20022;-75
2021/05/02 03:45:32;;;;;;;40.83;29.20;;;;;;;8.13;82.79;99963.44;5031944;28;20044;-76
2021/05/02 03:47:57;;;;;;;44.33;30.77;;;;;;;8.10;82.73;99952.94;5022869;28;20117;-75
2021/05/02 03:50:23;;;;;;;41.88;29.92;;;;;;;8.11;82.48;99958.19;5024667;28;20406;-76
2021/05/02 03:52:48;;;;;;;41.22;30.20;;;;;;;8.04;83.01;99955.59;5019750;28;20068;-76
2021/05/02 03:55:13;;;;;;;46.28;32.00;;;;;;;8.03;82.86;99964.38;5025120;28;20116;-75
2021/05/02 03:57:39;;;;;;;48.15;32.25;;;;;;;8.00;83.48;99959.13;5023646;28;20083;-75
2021/05/02 04:00:05;;;;;;;47.38;32.58;;;;;;;7.98;83.17;99971.38;5022606;28;20037;-75
2021/05/02 04:02:30;;;;;;;44.40;31.92;;;;;;;7.90;83.72;99967.03;5026079;28;20036;-75
2021/05/02 04:04:55;;;;;;;42.42;31.23;;;;;;;7.90;83.25;99967.03;5026462;28;20041;-75
2021/05/02 04:07:21;;;;;;;46.58;31.05;;;;;;;7.86;83.84;99970.56;5022528;28;20025;-75
2021/05/02 04:09:46;;;;;;;44.42;30.80;;;;;;;7.85;84.07;99966.19;5023590;28;20079;-75
2021/05/02 04:12:12;;;;;;;45.08;30.13;;;;;;;7.83;83.69;99962.72;5039449;28;20445;-75
2021/05/02 04:14:39;;;;;;;48.60;33.20;;;;;;;7.77;84.08;99964.47;5021099;28;20517;-75
2021/05/02 04:17:06;;;;;;;49.80;32.75;;;;;;;7.78;84.29;99964.47;5039045;28;20591;-75
2021/05/02 04:19:34;;;;;;;48.30;32.28;;;;;;;7.81;84.36;99969.72;5024487;28;20029;-74
2021/05/02 04:22:00;;;;;;;49.80;32.58;;;;;;;7.81;84.11;99964.47;5021743;28;20092;-75
2021/05/02 04:24:26;;;;;;;48.03;32.95;;;;;;;7.81;83.85;99969.72;5020904;28;20410;-75
2021/05/02 04:26:54;;;;;;;48.58;32.35;;;;;;;7.81;84.47;99967.09;5023059;28;20037;-75
2021/05/02 04:29:24;;;;;;;47.97;31.35;;;;;;;7.76;84.82;99976.75;5022751;28;20391;-75
2021/05/02 04:31:50;;;;;;;50.72;32.63;;;;;;;7.74;84.92;99969.75;5022125;28;20513;-75
2021/05/02 04:34:16;;;;;;;46.13;32.28;;;;;;;7.78;85.27;99971.47;5022516;28;20042;-75
2021/05/02 04:36:41;;;;;;;48.33;32.85;;;;;;;7.80;85.39;99975.84;5024427;28;20042;-75
2021/05/02 04:39:07;;;;;;;44.67;32.17;;;;;;;7.79;85.44;99979.34;5022866;28;20038;-75
2021/05/02 04:41:32;;;;;;;50.28;33.00;;;;;;;7.73;85.37;99976.75;5021541;28;20049;-73
2021/05/02 04:43:58;;;;;;;42.88;29.20;;;;;;;7.77;85.30;99972.34;5022863;28;20033;-75
2021/05/02 04:46:24;;;;;;;49.15;33.72;;;;;;;7.77;85.77;99978.47;5023424;28;20073;-75
2021/05/02 04:48:49;;;;;;;55.17;37.28;;;;;;;7.78;85.34;99977.63;5021679;28;20114;-75
2021/05/02 04:51:14;;;;;;;56.45;37.20;;;;;;;7.76;86.12;99975.88;5022032;28;20489;-74
2021/05/02 04:53:41;;;;;;;43.90;30.65;;;;;;;7.78;85.32;99984.59;5023618;28;20045;-75
2021/05/02 04:56:07;;;;;;;49.75;32.13;;;;;;;7.73;85.91;99991.63;5021590;28;20037;-75
2021/05/02 04:58:32;;;;;;;44.95;31.08;;;;;;;7.78;86.08;99990.75;5022546;28;20045;-75
2021/05/02 05:00:57;;;;;;;49.90;32.80;;;;;;;7.75;85.91;99989.88;5023890;28;20041;-75
2021/05/02 05:03:23;;;;;;;47.70;30.75;;;;;;;7.76;85.97;99991.63;5021684;28;20034;-74
2021/05/02 05:05:48;;;;;;;49.25;33.42;;;;;;;7.78;85.99;99992.47;5022075;28;20501;-75
2021/05/02 05:08:13;;;;;;;53.58;34.80;;;;;;;7.76;85.85;99992.50;5023791;28;20032;-75
2021/05/02 05:10:39;;;;;;;56.90;37.92;;;;;;;7.79;85.67;99997.75;5037459;28;20536;-74
2021/05/02 05:13:04;;;;;;;51.30;35.60;;;;;;;7.81;86.85;100005.63;5021056;28;20461;-75
2021/05/02 05:15:30;;;;;;;41.05;30.50;;;;;;;7.82;86.08;100005.59;5023581;28;20539;-76
2021/05/02 05:17:55;;;;;;;45.03;31.23;;;;;;;7.79;85.50;100008.25;5037915;28;20124;-74
2021/05/02 05:20:20;;;;;;;44.72;31.95;;;;;;;7.77;86.33;100017.00;5019707;28;20038;-75
2021/05/02 05:22:46;;;;;;;40.17;29.08;;;;;;;7.81;86.47;100016.13;5021845;28;20120;-75
2021/05/02 05:25:12;;;;;;;46.15;30.95;;;;;;;7.78;86.48;100021.38;5022922;28;20046;-74
2021/05/02 05:27:37;;;;;;;40.97;29.92;;;;;;;7.78;85.94;100017.03;5020918;28;20041;-74
2021/05/02 05:30:04;;;;;;;48.30;32.97;;;;;;;7.77;86.17;100025.75;5022222;28;20037;-75
2021/05/02 05:32:29;;;;;;;50.25;32.58;;;;;;;7.81;86.57;100027.50;5022998;28;20057;-75
2021/05/02 05:34:54;;;;;;;45.47;32.17;;;;;;;7.83;86.40;100025.75;5021097;28;20037;-75
2021/05/02 05:37:20;;;;;;;50.28;32.65;;;;;;;7.81;86.50;100030.16;5021658;28;20034;-74
2021/05/02 05:39:45;;;;;;;54.22;35.47;;;;;;;7.80;86.00;100031.00;5023111;28;20033;-75
2021/05/02 05:42:10;;;;;;;54.72;37.30;;;;;;;7.83;86.13;100030.13;5021186;28;20050;-74
2021/05/02 05:44:36;;;;;;;54.55;35.88;;;;;;;7.86;86.39;100030.13;5021031;28;20065;-75
2021/05/02 05:47:01;;;;;;;46.35;32.75;;;;;;;7.88;86.16;100039.72;5023021;28;20045;-75
2021/05/02 05:49:26;;;;;;;52.17;35.63;;;;;;;7.86;85.67;100038.88;5021775;28;20045;-74
2021/05/02 05:51:53;;;;;;;48.15;35.38;;;;;;;7.86;85.66;100033.63;5020359;28;20046;-74
2021/05/02 05:54:19;;;;;;;50.72;33.90;;;;;;;7.86;86.34;100045.91;5021183;28;20067;-74
2021/05/02 05:56:45;;;;;;;50.15;33.20;;;;;;;7.88;86.10;100049.38;5022443;28;20493;-74
2021/05/02 05:59:10;;;;;;;54.85;36.45;;;;;;;7.93;86.38;100047.59;5022277;28;20067;-74
2021/05/02 06:01:35;;;;;;;54.85;37.75;;;;;;;7.98;86.07;100056.34;5023897;28;20046;-74
2021/05/02 06:04:01;;;;;;;50.60;35.17;;;;;;;8.00;85.71;100048.47;5020378;28;20069;-75
2021/05/02 06:06:32;;;;;;;55.55;39.13;;;;;;;7.97;85.84;100061.63;5021342;28;20061;-75
2021/05/02 06:08:58;;;;;;;56.20;38.50;;;;;;;7.98;85.92;100058.09;5022592;28;20041;-74
2021/05/02 06:11:23;;;;;;;54.08;35.35;;;;;;;7.96;86.12;100060.72;5020070;28;20100;-74
2021/05/02 06:13:48;;;;;;;60.40;40.20;;;;;;;7.97;86.48;100064.25;5021203;28;20065;-73
2021/05/02 06:16:14;;;;;;;49.80;34.50;;;;;;;8.03;85.69;100070.34;5022601;28;20044;-74
2021/05/02 06:18:39;;;;;;;53.70;35.63;;;;;;;7.98;86.15;100063.38;5020470;28;20025;-74
2021/05/02 06:21:04;;;;;;;58.45;39.75;;;;;;;7.97;86.53;100065.13;5020703;28;20033;-75
2021/05/02 06:23:29;;;;;;;61.22;38.17;;;;;;;8.04;86.45;100071.22;5022276;28;20401;-74
2021/05/02 06:25:55;;;;;;;51.50;36.70;;;;;;;8.10;86.34;100072.09;5021113;28;20034;-75
2021/05/02 06:28:20;;;;;;;51.70;35.13;;;;;;;8.13;85.63;100076.47;5020177;28;20104;-75
2021/05/02 06:30:45;;;;;;;53.90;36.35;;;;;;;8.05;86.08;100079.13;5022330;28;20033;-74
2021/05/02 06:33:11;;;;;;;57.08;35.55;;;;;;;8.01;85.90;100079.97;5020797;28;20448;-74
2021/05/02 06:35:36;;;;;;;52.13;34.50;;;;;;;8.04;86.26;100080.00;5020068;28;20033;-75
2021/05/02 06:38:02;;;;;;;59.70;39.25;;;;;;;8.01;86.97;100071.22;5021912;28;20124;-74
2021/05/02 06:40:27;;;;;;;51.17;35.78;;;;;;;8.04;86.46;100082.63;5021677;28;20037;-73
2021/05/02 06:42:52;;;;;;;58.13;38.90;;;;;;;7.98;86.21;100076.50;5019680;28;20034;-75
2021/05/02 06:45:18;;;;;;;51.08;34.58;;;;;;;7.94;86.49;100080.00;5021685;28;20034;-74
2021/05/02 06:47:44;;;;;;;52.80;36.33;;;;;;;7.90;86.69;100087.91;5022245;28;20103;-74
2021/05/02 06:50:10;;;;;;;58.17;38.33;;;;;;;7.92;86.90;100081.78;5019968;28;20045;-75
2021/05/02 06:52:35;;;;;;;55.88;36.22;;;;;;;7.98;86.18;100087.00;5020608;28;20038;-75
2021/05/02 06:55:00;;;;;;;61.92;39.45;;;;;;;7.93;86.75;100080.91;5022047;28;20551;-74
2021/05/02 06:57:26;;;;;;;55.78;37.38;;;;;;;7.97;87.13;100091.41;5020584;28;20045;-74
2021/05/02 06:59:51;;;;;;;63.60;41.20;;;;;;;7.98;86.56;100087.00;5020042;28;20038;-73
2021/05/02 07:02:17;;;;;;;58.63;38.15;;;;;;;8.02;86.25;100086.16;5021834;28;20119;-74
2021/05/02 07:04:42;;;;;;;49.05;35.15;;;;;;;8.07;85.62;100087.00;5023134;28;20087;-75
2021/05/02 07:07:07;;;;;;;56.58;38.50;;;;;;;8.06;86.41;100086.09;5022137;28;20540;-73
2021/05/02 07:09:33;;;;;;;57.80;37.80;;;;;;;8.08;86.65;100091.38;5035232;28;20509;-74
2021/05/02 07:11:59;;;;;;;58.15;39.10;;;;;;;8.13;87.05;100081.72;5018943;28;20046;-74
2021/05/02 07:14:24;;;;;;;50.17;37.20;;;;;;;8.20;86.13;100085.19;5021882;28;20045;-75
2021/05/02 07:16:50;;;;;;;51.10;37.38;;;;;;;8.19;86.50;100089.56;5020477;28;20120;-74
2021/05/02 07:19:15;;;;;;;55.45;38.08;;;;;;;8.19;85.92;100093.97;5019626;28;20030;-75
2021/05/02 07:21:41;;;;;;;50.70;35.53;;;;;;;8.17;85.83;100088.69;5021655;28;20037;-75
2021/05/02 07:24:07;;;;;;;54.40;36.05;;;;;;;8.16;86.97;100099.22;5020940;28;20497;-75
2021/05/02 07:26:33;;;;;;;61.63;38.42;;;;;;;8.20;86.42;100093.97;5019562;28;20034;-75
2021/05/02 07:28:58;;;;;;;58.08;37.95;;;;;;;8.24;86.38;100100.06;5021254;28;20489;-74
2021/05/02 07:31:23;;;;;;;56.75;36.65;;;;;;;8.31;86.40;100091.28;5021227;28;20155;-75
2021/05/02 07:33:49;;;;;;;56.55;38.53;;;;;;;8.36;85.92;100097.41;5019381;28;20128;-74
2021/05/02 07:36:14;;;;;;;51.75;35.85;;;;;;;8.31;85.63;100097.44;5020756;28;20156;-74
2021/05/02 07:38:40;;;;;;;54.88;37.92;;;;;;;8.29;85.93;100098.31;5021598;28;20038;-74
2021/05/02 07:41:06;;;;;;;62.75;37.95;;;;;;;8.27;85.92;100105.31;5019717;28;20121;-75
2021/05/02 07:43:33;;;;;;;57.20;36.88;;;;;;;8.31;85.54;100100.06;5019908;28;20121;-75
2021/05/02 07:45:59;;;;;;;49.08;36.03;;;;;;;8.35;85.46;100107.03;5036419;28;20038;-73
2021/05/02 07:48:24;;;;;;;67.53;41.83;;;;;;;8.27;86.46;100106.19;5024132;28;20029;-74
2021/05/02 07:50:50;;;;;;;58.33;38.85;;;;;;;8.41;86.45;100097.41;5025150;28;20383;-75
2021/05/02 07:53:20;;;;;;;57.90;36.53;;;;;;;8.54;86.24;100101.72;5022534;28;20470;-75
2021/05/02 07:55:45;;;;;;;52.42;37.38;;;;;;;8.56;85.06;100105.22;5022931;28;20045;-74
2021/05/02 07:58:11;;;;;;;57.58;39.08;;;;;;;8.49;84.84;100106.16;5025055;28;20037;-74
2021/05/02 08:00:36;;;;;;;57.67;38.85;;;;;;;8.48;84.80;100104.38;5024000;28;20034;-74
2021/05/02 08:03:01;;;;;;;57.38;38.30;;;;;;;8.52;85.56;100104.38;5022333;28;20111;-75
2021/05/02 08:05:28;;;;;;;54.42;38.63;;;;;;;8.62;85.61;100105.22;5024559;28;20033;-74
2021/05/02 08:07:53;;;;;;;68.15;41.40;;;;;;;8.61;85.14;100103.44;5024415;28;20037;-74
2021/05/02 08:10:20;;;;;;;63.83;40.50;;;;;;;8.66;84.79;100106.06;5022326;28;20498;-75
2021/05/02 08:12:45;;;;;;;63.95;41.38;;;;;;;8.68;84.47;100110.44;5023241;28;20042;-75
2021/05/02 08:15:11;;;;;;;59.53;40.85;;;;;;;8.73;83.71;100116.56;5024779;28;20397;-74
2021/05/02 08:17:37;;;;;;;60.10;39.42;;;;;;;8.82;84.43;100120.00;5022812;28;20080;-73
2021/05/02 08:20:07;;;;;;;57.33;37.72;;;;;;;8.83;84.55;100121.75;5022852;28;20041;-74
2021/05/02 08:22:32;;;;;;;60.92;40.17;;;;;;;8.90;84.66;100107.69;5022082;28;20117;-75
2021/05/02 08:24:57;;;;;;;63.17;42.00;;;;;;;8.96;83.87;100112.91;5023142;28;20117;-74
2021/05/02 08:27:23;;;;;;;61.05;39.70;;;;;;;8.94;83.81;100114.69;5024570;28;20396;-75
2021/05/02 08:29:48;;;;;;;71.20;42.58;;;;;;;8.97;84.84;100115.53;5022748;28;20652;-73
2021/05/02 08:32:13;;;;;;;59.97;38.22;;;;;;;9.09;83.04;100119.84;5022208;28;20505;-74
2021/05/02 08:34:39;;;;;;;50.88;36.83;;;;;;;9.03;82.23;100114.63;5024309;28;20037;-73
2021/05/02 08:37:06;;;;;;;53.13;35.00;;;;;;;8.98;83.00;100116.41;5022932;28;20069;-74
2021/05/02 08:39:32;;;;;;;55.88;34.90;;;;;;;9.05;83.02;100112.84;5037147;28;20092;-73
2021/05/02 08:41:57;;;;;;;56.25;35.60;;;;;;;9.12;82.48;100119.84;5023706;28;20059;-75
2021/05/02 08:44:24;;;;;;;52.58;36.25;;;;;;;9.21;82.38;100116.25;5025569;28;20041;-75
2021/05/02 08:46:51;;;;;;;51.08;35.15;;;;;;;9.37;82.68;100124.91;5039718;28;20049;-73
2021/05/02 08:49:18;;;;;;;61.65;37.47;;;;;;;9.40;81.45;100116.97;5022895;28;20076;-74
2021/05/02 08:51:43;;;;;;;55.58;36.40;;;;;;;9.39;81.88;100112.59;5021424;28;20046;-75
2021/05/02 08:54:09;;;;;;;58.38;38.97;;;;;;;9.51;82.37;100117.78;5023366;28;20091;-74
2021/05/02 08:56:34;;;;;;;51.22;37.28;;;;;;;9.62;82.23;100121.19;5023580;28;20083;-74
2021/05/02 08:58:59;;;;;;;54.65;37.97;;;;;;;9.61;80.84;100119.44;5021500;28;20190;-74
2021/05/02 09:01:29;;;;;;;53.75;37.08;;;;;;;9.60;80.54;100122.97;5022587;28;20033;-74
2021/05/02 09:03:55;;;;;;;52.63;37.40;;;;;;;9.61;80.80;100123.81;5023731;28;20181;-74
2021/05/02 09:06:21;;;;;;;50.15;35.97;;;;;;;9.74;80.02;100125.47;5022231;28;20124;-75
2021/05/02 09:08:48;;;;;;;53.80;37.50;;;;;;;9.73;80.61;100114.97;5021410;28;20042;-74
2021/05/02 09:11:16;;;;;;;48.45;35.08;;;;;;;9.80;80.84;100119.28;5021444;28;20034;-74
2021/05/02 09:13:47;;;;;;;49.97;35.97;;;;;;;10.00;81.18;100111.16;5024942;28;20505;-74
2021/05/02 09:16:12;;;;;;;48.38;34.72;;;;;;;10.09;79.52;100114.59;5021585;28;20038;-75
2021/05/02 09:18:43;;;;;;;43.85;33.15;;;;;;;10.10;77.63;100118.94;5021650;28;20030;-75
2021/05/02 09:21:13;;;;;;;44.70;33.45;;;;;;;10.09;78.20;100116.34;5021399;28;20041;-74
2021/05/02 09:23:41;;;;;;;46.90;34.65;;;;;;;10.24;78.81;100112.66;5021161;28;20029;-75
2021/05/02 09:26:08;;;;;;;41.55;31.92;;;;;;;10.36;76.41;100127.50;5021399;28;20052;-73
2021/05/02 09:28:48;;;;;;;42.67;31.67;;;;;;;10.45;77.43;100114.19;5024555;28;20417;-75
2021/05/02 09:31:18;;;;;;;40.25;31.67;;;;;;;10.56;77.29;100116.69;5021236;28;20049;-71
2021/05/02 09:33:44;;;;;;;43.03;32.33;;;;;;;10.41;75.18;100134.47;5020810;28;20544;-75
2021/05/02 09:36:12;;;;;;;42.40;31.30;;;;;;;10.37;75.76;100132.75;5021960;28;20050;-75
2021/05/02 09:38:38;;;;;;;45.83;31.75;;;;;;;10.53;75.25;100128.16;5018949;28;20108;-75
2021/05/02 09:41:05;;;;;;;43.08;32.38;;;;;;;10.70;75.39;100135.88;5022085;28;20037;-75
2021/05/02 09:43:32;;;;;;;43.42;33.03;;;;;;;10.79;75.22;100122.53;5022817;28;20091;-75
2021/05/02 09:46:24;;;;;;;43.10;33.05;;;;;;;11.01;73.47;100120.50;5021471;28;20030;-75
2021/05/02 09:49:10;;;;;;;38.08;29.98;;;;;;;11.13;71.46;100130.00;5021203;28;20041;-75
2021/05/02 09:51:44;;;;;;;37.17;29.45;;;;;;;11.23;71.90;100139.53;5020287;28;20056;-75
2021/05/02 09:54:13;;;;;;;37.25;28.80;;;;;;;11.26;71.38;100126.25;5021726;28;20096;-75
2021/05/02 09:56:41;;;;;;;36.95;29.20;;;;;;;11.31;71.43;100124.44;5020527;28;20045;-75
2021/05/02 09:59:29;;;;;;;34.55;27.92;;;;;;;11.29;70.16;100130.63;5021630;28;20076;-75
2021/05/02 10:02:09;;;;;;;33.55;25.40;;;;;;;11.40;70.34;100129.59;5037526;28;20045;-75
2021/05/02 10:04:37;;;;;;;31.23;26.13;;;;;;;11.37;70.85;100129.63;5020940;28;20655;-75
2021/05/02 10:07:09;;;;;;;31.17;24.33;;;;;;;11.58;70.21;100133.69;5020336;28;20038;-76
2021/05/02 10:09:34;;;;;;;;;;;;;;;11.75;68.90;100149.25;5020966;28;20041;-75
2021/05/02 10:12:00;;;;;;;31.00;23.77;;;;;;;11.55;68.73;100136.41;5022720;28;19966;-75
2021/05/02 10:14:25;;;;;;;28.73;23.20;;;;;;;11.49;69.36;100133.84;5021188;28;20034;-74
2021/05/02 10:16:50;;;;;;;30.15;24.23;;;;;;;11.38;70.21;100147.22;5020416;28;20512;-75
2021/05/02 10:19:16;;;;;;;29.67;23.73;;;;;;;11.33;70.70;100142.91;5022373;28;20041;-75
2021/05/02 10:21:41;;;;;;;29.88;24.35;;;;;;;11.62;69.52;100142.44;5021799;28;20127;-74
2021/05/02 10:24:07;;;;;;;31.55;23.75;;;;;;;12.08;68.40;100146.97;5020178;28;20034;-75
2021/05/02 10:26:33;;;;;;;28.30;22.67;;;;;;;12.15;67.43;100138.00;5022040;28;20044;-76
2021/05/02 10:28:58;;;;;;;27.77;22.73;;;;;;;11.95;67.76;100145.44;5022160;28;20033;-76
2021/05/02 10:31:30;;;;;;;26.77;20.65;;;;;;;11.75;66.71;100149.25;5019792;28;20112;-74
2021/05/02 10:33:55;;;;;;;25.50;21.20;;;;;;;11.60;67.44;100152.16;5020320;28;20040;-75
2021/05/02 10:36:22;;;;;;;27.23;21.48;;;;;;;11.56;66.95;100150.47;5022411;28;20120;-75
2021/05/02 10:39:00;;;;;;;27.35;22.50;;;;;;;11.47;67.72;100153.25;5018813;28;20068;-77
2021/05/02 10:41:30;;;;;;;25.70;20.85;;;;;;;11.66;65.89;100152.06;5020591;28;20049;-77
2021/05/02 10:44:18;;;;;;;26.60;20.60;;;;;;;11.94;66.77;100163.06;5018674;28;20066;-76
2021/05/02 10:46:53;;;;;;;26.80;21.70;;;;;;;12.12;65.84;100159.22;5012495;28;20058;-77
2021/05/02 10:49:19;;;;;;;25.92;21.25;;;;;;;12.57;66.18;100153.94;5019845;28;20398;-77
2021/05/02 10:51:52;;;;;;;25.50;20.58;;;;;;;12.52;63.29;100155.78;5021637;28;20045;-77
2021/05/02 10:54:21;;;;;;;24.55;20.45;;;;;;;11.97;65.57;100168.31;5022107;28;20045;-77
2021/05/02 10:56:51;;;;;;;26.10;20.20;;;;;;;11.67;65.43;100180.25;5016259;28;20403;-77
2021/05/02 10:59:17;;;;;;;24.20;19.88;;;;;;;11.50;66.64;100167.31;5037360;28;20436;-77
2021/05/02 11:01:43;;;;;;;26.00;20.77;;;;;;;11.49;66.50;100180.53;5020380;28;20116;-77
2021/05/02 11:04:08;;;;;;;25.33;20.05;;;;;;;11.48;66.68;100178.81;5020188;28;20470;-77
2021/05/02 11:06:37;;;;;;;25.05;19.20;;;;;;;11.78;65.09;100178.28;5022037;28;20107;-77
2021/05/02 11:09:10;;;;;;;23.85;20.15;;;;;;;12.06;63.91;100176.06;5021478;28;20037;-77
2021/05/02 11:11:38;;;;;;;23.55;18.60;;;;;;;12.31;64.34;100182.69;5019998;28;20037;-77
2021/05/02 11:14:07;;;;;;;22.83;20.08;;;;;;;12.59;62.55;100186.53;5019652;28;20049;-77
2021/05/02 11:16:32;;;;;;;21.88;18.25;;;;;;;12.47;63.15;100184.13;5018859;28;20520;-77
2021/05/02 11:18:57;;;;;;;21.55;17.67;;;;;;;12.58;64.61;100182.16;5019964;28;20112;-77
2021/05/02 11:21:24;;;;;;;21.77;17.52;;;;;;;12.70;63.58;100181.91;5024636;28;20504;-77